createdAt,value
2023-03-30T00:00:51.490Z,25.71
2023-03-30T00:01:51.572Z,25.68
2023-03-30T00:02:51.547Z,25.68
2023-03-30T00:03:51.524Z,25.68
2023-03-30T00:04:51.571Z,25.67
2023-03-30T00:05:51.530Z,25.68
2023-03-30T00:06:51.567Z,25.69
2023-03-30T00:07:51.603Z,25.68
2023-03-30T00:08:51.632Z,25.65
2023-03-30T00:09:51.657Z,25.71
2023-03-30T00:10:51.709Z,25.70
2023-03-30T00:11:51.729Z,25.71
2023-03-30T00:12:51.803Z,25.67
2023-03-30T00:13:51.812Z,25.70
2023-03-30T00:14:51.827Z,25.71
2023-03-30T00:15:51.855Z,25.71
2023-03-30T00:16:51.936Z,25.71
2023-03-30T00:17:51.914Z,25.76
2023-03-30T00:18:51.863Z,25.74
2023-03-30T00:19:51.860Z,25.74
2023-03-30T00:20:51.832Z,25.74
2023-03-30T00:21:51.801Z,25.69
2023-03-30T00:22:51.797Z,25.71
2023-03-30T00:23:51.789Z,25.65
2023-03-30T00:24:51.761Z,25.73
2023-03-30T00:25:51.749Z,25.71
2023-03-30T00:26:51.736Z,25.75
2023-03-30T00:27:51.737Z,25.64
2023-03-30T00:28:51.738Z,25.71
2023-03-30T00:29:51.755Z,25.71
2023-03-30T00:30:51.688Z,25.72
2023-03-30T00:31:51.837Z,25.68
2023-03-30T00:32:51.865Z,25.71
2023-03-30T00:33:51.796Z,25.67
2023-03-30T00:34:51.829Z,25.70
2023-03-30T00:35:51.946Z,25.74
2023-03-30T00:36:51.894Z,25.74
2023-03-30T00:37:51.922Z,25.73
2023-03-30T00:38:51.937Z,25.73
2023-03-30T00:39:51.976Z,25.74
2023-03-30T00:40:51.996Z,25.76
2023-03-30T00:41:52.041Z,25.71
2023-03-30T00:42:52.075Z,25.73
2023-03-30T00:43:52.116Z,25.72
2023-03-30T00:44:52.129Z,25.71
2023-03-30T00:45:52.291Z,25.68
2023-03-30T00:46:52.203Z,25.68
2023-03-30T00:47:52.278Z,25.74
2023-03-30T00:48:52.287Z,25.74
2023-03-30T00:49:52.317Z,25.73
2023-03-30T00:50:52.338Z,25.68
2023-03-30T00:51:52.369Z,25.63
2023-03-30T00:52:52.375Z,25.70
2023-03-30T00:53:52.337Z,25.70
2023-03-30T00:54:52.336Z,25.68
2023-03-30T00:55:52.316Z,25.66
2023-03-30T00:56:52.310Z,25.70
2023-03-30T00:57:52.290Z,25.74
2023-03-30T00:58:52.270Z,25.71
2023-03-30T00:59:52.253Z,25.75
2023-03-30T01:00:52.234Z,25.75
2023-03-30T01:01:52.266Z,25.68
2023-03-30T01:02:52.234Z,25.71
2023-03-30T01:03:52.313Z,25.66
2023-03-30T01:04:52.184Z,25.70
2023-03-30T01:05:52.211Z,25.71
2023-03-30T01:06:52.231Z,25.67
2023-03-30T01:07:52.265Z,25.71
2023-03-30T01:08:52.283Z,25.68
2023-03-30T01:09:52.328Z,25.67
2023-03-30T01:10:52.390Z,25.71
2023-03-30T01:11:52.412Z,25.67
2023-03-30T01:12:52.465Z,25.65
2023-03-30T01:13:52.540Z,25.67
2023-03-30T01:14:52.554Z,25.72
2023-03-30T01:15:52.656Z,25.68
2023-03-30T01:16:52.653Z,25.70
2023-03-30T01:17:52.709Z,25.75
2023-03-30T01:18:52.725Z,25.68
2023-03-30T01:19:52.767Z,25.70
2023-03-30T01:20:52.790Z,25.69
2023-03-30T01:21:52.833Z,25.67
2023-03-30T01:22:52.879Z,25.70
2023-03-30T01:23:52.928Z,25.68
2023-03-30T01:24:52.973Z,25.70
2023-03-30T01:25:53.001Z,25.64
2023-03-30T01:26:53.034Z,25.68
2023-03-30T01:27:53.071Z,25.71
2023-03-30T01:28:53.124Z,25.71
2023-03-30T01:29:53.155Z,25.69
2023-03-30T01:30:53.220Z,25.72
2023-03-30T01:31:53.225Z,25.72
2023-03-30T01:32:53.320Z,25.71
2023-03-30T01:33:53.337Z,25.71
2023-03-30T01:34:53.390Z,25.69
2023-03-30T01:35:53.544Z,25.71
2023-03-30T01:36:53.464Z,25.71
2023-03-30T01:37:53.514Z,25.69
2023-03-30T01:38:53.566Z,25.69
2023-03-30T01:39:53.607Z,25.69
2023-03-30T01:40:53.642Z,25.69
2023-03-30T01:41:53.671Z,25.69
2023-03-30T01:42:53.716Z,25.69
2023-03-30T01:43:53.750Z,25.66
2023-03-30T01:44:53.827Z,25.68
2023-03-30T01:45:53.818Z,25.69
2023-03-30T01:46:53.912Z,25.69
2023-03-30T01:47:53.975Z,25.74
2023-03-30T01:48:53.928Z,25.68
2023-03-30T01:49:53.970Z,25.66
2023-03-30T01:50:54.001Z,25.68
2023-03-30T01:51:54.061Z,25.71
2023-03-30T01:52:54.080Z,25.73
2023-03-30T01:53:54.134Z,25.72
2023-03-30T01:54:54.184Z,25.72
2023-03-30T01:55:54.213Z,25.69
2023-03-30T01:56:54.304Z,25.68
2023-03-30T01:57:54.289Z,25.73
2023-03-30T01:58:54.321Z,25.70
2023-03-30T01:59:54.360Z,25.72
2023-03-30T02:00:54.398Z,25.68
2023-03-30T02:01:54.475Z,25.68
2023-03-30T02:02:54.573Z,25.69
2023-03-30T02:03:54.642Z,25.69
2023-03-30T02:04:54.573Z,25.69
2023-03-30T02:05:54.602Z,25.66
2023-03-30T02:06:54.646Z,25.69
2023-03-30T02:07:54.717Z,25.68
2023-03-30T02:08:54.729Z,25.66
2023-03-30T02:09:54.778Z,25.71
2023-03-30T02:10:54.836Z,25.69
2023-03-30T02:11:54.856Z,25.69
2023-03-30T02:12:54.890Z,25.65
2023-03-30T02:13:54.926Z,25.73
2023-03-30T02:14:54.980Z,25.65
2023-03-30T02:15:55.016Z,25.72
2023-03-30T02:16:55.051Z,25.69
2023-03-30T02:17:55.181Z,25.69
2023-03-30T02:18:55.138Z,25.68
2023-03-30T02:19:55.183Z,25.70
2023-03-30T02:20:55.229Z,25.68
2023-03-30T02:21:55.286Z,25.68
2023-03-30T02:22:55.340Z,25.66
2023-03-30T02:23:55.388Z,25.72
2023-03-30T02:24:55.429Z,25.68
2023-03-30T02:25:55.489Z,25.69
2023-03-30T02:26:55.571Z,25.72
2023-03-30T02:27:55.570Z,25.72
2023-03-30T02:28:55.603Z,25.66
2023-03-30T02:29:55.669Z,25.72
2023-03-30T02:30:55.789Z,25.70
2023-03-30T02:31:55.751Z,25.72
2023-03-30T02:32:55.813Z,25.70
2023-03-30T02:33:55.818Z,25.73
2023-03-30T02:34:55.885Z,25.73
2023-03-30T02:35:55.929Z,25.72
2023-03-30T02:36:55.953Z,25.73
2023-03-30T02:37:55.992Z,25.70
2023-03-30T02:38:56.029Z,25.73
2023-03-30T02:39:56.093Z,25.69
2023-03-30T02:40:56.125Z,25.70
2023-03-30T02:41:56.166Z,25.69
2023-03-30T02:42:56.201Z,25.66
2023-03-30T02:43:56.251Z,25.72
2023-03-30T02:44:56.312Z,25.69
2023-03-30T02:45:56.366Z,25.72
2023-03-30T02:46:56.372Z,25.66
2023-03-30T02:47:56.440Z,25.72
2023-03-30T02:48:56.470Z,25.69
2023-03-30T02:49:56.519Z,25.70
2023-03-30T02:50:56.556Z,25.68
2023-03-30T02:51:56.618Z,25.73
2023-03-30T02:52:56.665Z,25.68
2023-03-30T02:53:56.738Z,25.72
2023-03-30T02:54:56.766Z,25.72
2023-03-30T02:55:56.813Z,25.75
2023-03-30T02:56:56.925Z,25.72
2023-03-30T02:57:56.910Z,25.73
2023-03-30T02:58:56.945Z,25.67
2023-03-30T02:59:57.020Z,25.69
2023-03-30T03:00:59.227Z,25.66
2023-03-30T03:01:57.130Z,25.69
2023-03-30T03:02:57.215Z,25.72
2023-03-30T03:03:57.196Z,25.73
2023-03-30T03:04:57.262Z,25.72
2023-03-30T03:05:57.301Z,25.70
2023-03-30T03:06:57.375Z,25.69
2023-03-30T03:07:57.404Z,25.73
2023-03-30T03:08:57.447Z,25.74
2023-03-30T03:09:57.508Z,25.72
2023-03-30T03:10:57.549Z,25.70
2023-03-30T03:11:57.587Z,25.72
2023-03-30T03:12:57.691Z,25.72
2023-03-30T03:13:57.681Z,25.76
2023-03-30T03:14:57.730Z,25.70
2023-03-30T03:15:57.807Z,25.70
2023-03-30T03:16:57.881Z,25.71
2023-03-30T03:17:57.913Z,25.70
2023-03-30T03:18:57.937Z,25.72
2023-03-30T03:19:58.002Z,25.69
2023-03-30T03:20:58.035Z,25.73
2023-03-30T03:21:58.080Z,25.72
2023-03-30T03:22:58.129Z,25.75
2023-03-30T03:23:58.182Z,25.69
2023-03-30T03:24:58.233Z,25.76
2023-03-30T03:25:58.294Z,25.70
2023-03-30T03:26:58.327Z,25.69
2023-03-30T03:27:58.384Z,25.73
2023-03-30T03:28:58.433Z,25.70
2023-03-30T03:29:58.472Z,25.67
2023-03-30T03:30:58.601Z,25.73
2023-03-30T03:31:58.572Z,25.66
2023-03-30T03:32:58.677Z,25.67
2023-03-30T03:33:58.691Z,25.71
2023-03-30T03:34:58.718Z,25.67
2023-03-30T03:35:58.858Z,25.69
2023-03-30T03:36:58.819Z,25.69
2023-03-30T03:37:58.897Z,25.66
2023-03-30T03:38:58.932Z,25.67
2023-03-30T03:39:58.986Z,25.70
2023-03-30T03:40:59.041Z,25.71
2023-03-30T03:41:59.093Z,25.64
2023-03-30T03:42:59.126Z,25.64
2023-03-30T03:43:59.205Z,25.69
2023-03-30T03:44:59.232Z,25.67
2023-03-30T03:45:59.415Z,25.70
2023-03-30T03:46:59.354Z,25.67
2023-03-30T03:47:59.525Z,25.62
2023-03-30T03:48:59.441Z,25.66
2023-03-30T03:49:59.494Z,25.66
2023-03-30T03:50:59.558Z,25.66
2023-03-30T03:51:59.595Z,25.67
2023-03-30T03:52:59.635Z,25.63
2023-03-30T03:53:59.704Z,25.64
2023-03-30T03:54:59.736Z,25.62
2023-03-30T03:55:59.783Z,25.60
2023-03-30T03:56:59.834Z,25.60
2023-03-30T03:57:59.846Z,25.63
2023-03-30T03:58:59.892Z,25.60
2023-03-30T04:00:00.053Z,25.60
2023-03-30T04:01:00.077Z,25.62
2023-03-30T04:02:00.091Z,25.60
2023-03-30T04:03:00.091Z,25.60
2023-03-30T04:04:00.125Z,25.60
2023-03-30T04:05:00.226Z,25.62
2023-03-30T04:06:00.320Z,25.59
2023-03-30T04:07:00.258Z,25.65
2023-03-30T04:08:00.278Z,25.65
2023-03-30T04:09:00.329Z,25.58
2023-03-30T04:10:00.314Z,25.63
2023-03-30T04:11:00.304Z,25.66
2023-03-30T04:12:00.338Z,25.62
2023-03-30T04:13:00.266Z,25.59
2023-03-30T04:14:00.254Z,25.56
2023-03-30T04:15:00.301Z,25.60
2023-03-30T04:16:00.276Z,25.62
2023-03-30T04:17:00.223Z,25.62
2023-03-30T04:18:00.302Z,25.59
2023-03-30T04:19:00.213Z,25.59
2023-03-30T04:20:00.173Z,25.54
2023-03-30T04:21:00.160Z,25.60
2023-03-30T04:22:00.204Z,25.60
2023-03-30T04:23:00.130Z,25.60
2023-03-30T04:24:00.163Z,25.60
2023-03-30T04:25:00.113Z,25.56
2023-03-30T04:26:00.147Z,25.60
2023-03-30T04:27:00.187Z,25.56
2023-03-30T04:28:00.230Z,25.59
2023-03-30T04:29:00.275Z,25.62
2023-03-30T04:30:00.293Z,25.53
2023-03-30T04:31:00.375Z,25.57
2023-03-30T04:32:00.428Z,25.55
2023-03-30T04:33:00.459Z,25.56
2023-03-30T04:34:00.474Z,25.56
2023-03-30T04:35:00.511Z,25.57
2023-03-30T04:36:00.616Z,25.52
2023-03-30T04:37:00.620Z,25.53
2023-03-30T04:38:00.650Z,25.52
2023-03-30T04:39:00.730Z,25.53
2023-03-30T04:40:00.722Z,25.53
2023-03-30T04:41:00.920Z,25.56
2023-03-30T04:42:00.832Z,25.51
2023-03-30T04:43:00.854Z,25.54
2023-03-30T04:44:00.898Z,25.59
2023-03-30T04:45:00.944Z,25.53
2023-03-30T04:46:01.018Z,25.56
2023-03-30T04:47:01.033Z,25.55
2023-03-30T04:48:01.152Z,25.56
2023-03-30T04:49:01.121Z,25.59
2023-03-30T04:50:01.185Z,25.57
2023-03-30T04:51:01.314Z,25.54
2023-03-30T04:52:01.259Z,25.56
2023-03-30T04:53:01.288Z,25.54
2023-03-30T04:54:01.321Z,25.56
2023-03-30T04:55:01.380Z,25.55
2023-03-30T04:56:01.393Z,25.53
2023-03-30T04:57:01.528Z,25.56
2023-03-30T04:58:01.467Z,25.53
2023-03-30T04:59:01.504Z,25.56
2023-03-30T05:00:01.565Z,25.51
2023-03-30T05:01:01.729Z,25.55
2023-03-30T05:02:01.699Z,25.56
2023-03-30T05:03:01.791Z,25.56
2023-03-30T05:04:01.716Z,25.56
2023-03-30T05:05:01.774Z,25.55
2023-03-30T05:06:01.785Z,25.56
2023-03-30T05:07:01.846Z,25.55
2023-03-30T05:08:01.930Z,25.55
2023-03-30T05:09:01.930Z,25.53
2023-03-30T05:10:01.965Z,25.53
2023-03-30T05:11:02.329Z,25.59
2023-03-30T05:12:02.050Z,25.53
2023-03-30T05:13:02.093Z,25.56
2023-03-30T05:14:02.159Z,25.56
2023-03-30T05:15:02.182Z,25.53
2023-03-30T05:16:02.210Z,25.53
2023-03-30T05:17:02.299Z,25.55
2023-03-30T05:18:02.376Z,25.55
2023-03-30T05:19:02.353Z,25.55
2023-03-30T05:20:02.412Z,25.59
2023-03-30T05:21:02.576Z,25.52
2023-03-30T05:22:02.474Z,25.53
2023-03-30T05:23:02.509Z,25.54
2023-03-30T05:24:02.546Z,25.52
2023-03-30T05:25:02.647Z,25.55
2023-03-30T05:26:02.716Z,25.53
2023-03-30T05:27:02.673Z,25.54
2023-03-30T05:28:02.712Z,25.53
2023-03-30T05:29:02.830Z,25.55
2023-03-30T05:30:02.777Z,25.56
2023-03-30T05:31:03.059Z,25.56
2023-03-30T05:32:02.877Z,25.55
2023-03-30T05:33:02.930Z,25.59
2023-03-30T05:34:02.931Z,25.55
2023-03-30T05:35:03.063Z,25.58
2023-03-30T05:36:03.056Z,26.20
2023-03-30T05:37:03.204Z,26.35
2023-03-30T05:38:03.112Z,26.84
2023-03-30T05:39:03.148Z,27.17
2023-03-30T05:40:03.247Z,27.24
2023-03-30T05:41:03.333Z,27.62
2023-03-30T05:42:03.352Z,27.91
2023-03-30T05:43:03.242Z,28.02
2023-03-30T05:44:03.259Z,28.32
2023-03-30T05:45:03.294Z,28.39
2023-03-30T05:46:03.874Z,28.58
2023-03-30T05:47:03.330Z,29.25
2023-03-30T05:48:03.421Z,28.54
2023-03-30T05:49:03.440Z,28.47
2023-03-30T05:50:03.341Z,28.40
2023-03-30T05:51:03.420Z,28.24
2023-03-30T05:52:03.374Z,28.05
2023-03-30T05:53:03.339Z,27.88
2023-03-30T05:54:03.348Z,27.72
2023-03-30T05:55:03.481Z,27.61
2023-03-30T05:56:03.358Z,27.58
2023-03-30T05:57:03.435Z,27.61
2023-03-30T05:58:03.400Z,27.51
2023-03-30T05:59:03.520Z,27.53
2023-03-30T06:00:03.415Z,27.47
2023-03-30T06:01:03.604Z,27.49
2023-03-30T06:02:03.442Z,27.47
2023-03-30T06:03:03.480Z,27.44
2023-03-30T06:04:03.598Z,27.46
2023-03-30T06:05:03.729Z,27.42
2023-03-30T06:06:03.521Z,27.43
2023-03-30T06:07:03.564Z,27.38
2023-03-30T06:08:03.552Z,27.32
2023-03-30T06:09:03.575Z,27.38
2023-03-30T06:10:03.592Z,27.32
2023-03-30T06:11:03.745Z,27.35
2023-03-30T06:12:03.624Z,27.32
2023-03-30T06:13:03.659Z,27.29
2023-03-30T06:14:03.675Z,27.28
2023-03-30T06:15:03.696Z,27.26
2023-03-30T06:16:03.960Z,27.24
2023-03-30T06:17:03.810Z,27.24
2023-03-30T06:18:03.948Z,27.24
2023-03-30T06:19:03.964Z,27.24
2023-03-30T06:20:05.307Z,27.27
2023-03-30T06:21:04.055Z,27.31
2023-03-30T06:22:03.921Z,27.23
2023-03-30T06:23:03.949Z,27.26
2023-03-30T06:24:03.961Z,27.21
2023-03-30T06:25:04.004Z,27.24
2023-03-30T06:26:04.007Z,27.29
2023-03-30T06:27:04.081Z,28.04
2023-03-30T06:28:04.110Z,28.18
2023-03-30T06:29:04.144Z,28.04
2023-03-30T06:30:04.142Z,28.21
2023-03-30T06:31:04.393Z,28.34
2023-03-30T06:32:04.216Z,28.41
2023-03-30T06:33:04.193Z,28.56
2023-03-30T06:34:04.171Z,28.73
2023-03-30T06:35:04.180Z,28.74
2023-03-30T06:36:04.183Z,28.93
2023-03-30T06:37:04.165Z,29.10
2023-03-30T06:38:04.141Z,29.26
2023-03-30T06:39:06.409Z,29.40
2023-03-30T06:40:04.182Z,29.46
2023-03-30T06:41:04.269Z,29.98
2023-03-30T06:42:04.188Z,29.83
2023-03-30T06:43:04.137Z,29.53
2023-03-30T06:44:04.134Z,29.05
2023-03-30T06:45:04.315Z,29.18
2023-03-30T06:46:04.199Z,28.70
2023-03-30T06:47:04.247Z,28.52
2023-03-30T06:48:04.204Z,28.51
2023-03-30T06:49:04.847Z,27.01
2023-03-30T06:50:04.225Z,26.55
2023-03-30T06:51:05.028Z,27.28
2023-03-30T06:52:06.190Z,27.84
2023-03-30T06:53:04.495Z,28.11
2023-03-30T06:54:04.377Z,28.28
2023-03-30T06:55:04.334Z,28.39
2023-03-30T06:56:04.320Z,28.48
2023-03-30T06:57:04.363Z,28.71
2023-03-30T06:58:04.277Z,28.74
2023-03-30T06:59:04.275Z,28.70
2023-03-30T07:00:04.276Z,28.68
2023-03-30T07:01:04.500Z,28.92
2023-03-30T07:02:04.252Z,28.96
2023-03-30T07:03:04.259Z,28.97
2023-03-30T07:04:04.224Z,29.16
2023-03-30T07:05:04.220Z,29.13
2023-03-30T07:06:04.185Z,29.15
2023-03-30T07:07:04.215Z,29.05
2023-03-30T07:08:04.153Z,29.04
2023-03-30T07:09:04.160Z,29.10
2023-03-30T07:10:04.153Z,29.10
2023-03-30T07:11:04.333Z,29.15
2023-03-30T07:12:04.169Z,29.11
2023-03-30T07:13:04.062Z,29.16
2023-03-30T07:14:04.025Z,29.20
2023-03-30T07:15:04.001Z,29.25
2023-03-30T07:16:04.038Z,29.26
2023-03-30T07:17:04.016Z,29.28
2023-03-30T07:18:03.943Z,29.27
2023-03-30T07:19:03.917Z,29.27
2023-03-30T07:20:03.904Z,29.23
2023-03-30T07:21:04.561Z,29.33
2023-03-30T07:22:03.834Z,29.27
2023-03-30T07:23:04.140Z,29.29
2023-03-30T07:24:03.964Z,29.39
2023-03-30T07:25:03.778Z,29.37
2023-03-30T07:26:03.741Z,29.29
2023-03-30T07:27:03.772Z,29.33
2023-03-30T07:28:04.363Z,29.46
2023-03-30T07:29:03.684Z,29.49
2023-03-30T07:30:13.805Z,29.30
2023-03-30T07:31:05.089Z,29.33
2023-03-30T07:32:04.890Z,29.33
2023-03-30T07:33:04.030Z,29.36
2023-03-30T07:34:04.040Z,29.37
2023-03-30T07:35:04.075Z,29.65
2023-03-30T07:36:04.266Z,30.34
2023-03-30T07:37:04.142Z,30.18
2023-03-30T07:38:04.301Z,30.11
2023-03-30T07:39:04.225Z,29.96
2023-03-30T07:40:04.280Z,29.72
2023-03-30T07:41:04.446Z,29.53
2023-03-30T07:42:04.443Z,29.67
2023-03-30T07:43:04.526Z,29.56
2023-03-30T07:44:04.459Z,29.20
2023-03-30T07:45:04.684Z,29.10
2023-03-30T07:46:04.667Z,29.12
2023-03-30T07:47:04.669Z,29.12
2023-03-30T07:48:05.417Z,29.08
2023-03-30T07:49:04.878Z,29.00
2023-03-30T07:50:04.701Z,28.94
2023-03-30T07:51:04.910Z,28.90
2023-03-30T07:52:04.781Z,28.83
2023-03-30T07:53:04.756Z,28.68
2023-03-30T07:54:04.780Z,28.71
2023-03-30T07:55:04.790Z,28.80
2023-03-30T07:56:04.672Z,28.75
2023-03-30T07:57:04.801Z,28.73
2023-03-30T07:58:04.618Z,28.65
2023-03-30T07:59:04.591Z,28.90
2023-03-30T08:00:04.552Z,28.65
2023-03-30T08:01:04.671Z,28.54
2023-03-30T08:02:04.510Z,28.62
2023-03-30T08:03:04.560Z,28.34
2023-03-30T08:04:04.511Z,28.51
2023-03-30T08:05:04.661Z,28.67
2023-03-30T08:06:04.461Z,28.68
2023-03-30T08:07:04.410Z,28.69
2023-03-30T08:08:04.449Z,28.63
2023-03-30T08:09:04.444Z,28.58
2023-03-30T08:10:04.436Z,27.69
2023-03-30T08:11:04.624Z,27.98
2023-03-30T08:12:04.442Z,27.89
2023-03-30T08:13:04.404Z,28.16
2023-03-30T08:14:04.414Z,27.40
2023-03-30T08:15:04.463Z,27.66
2023-03-30T08:16:04.429Z,27.89
2023-03-30T08:17:04.340Z,27.83
2023-03-30T08:18:04.537Z,27.93
2023-03-30T08:19:04.314Z,27.94
2023-03-30T08:20:04.289Z,27.87
2023-03-30T08:21:04.560Z,27.92
2023-03-30T08:22:04.264Z,28.08
2023-03-30T08:23:04.212Z,28.20
2023-03-30T08:24:04.205Z,28.05
2023-03-30T08:25:04.183Z,28.07
2023-03-30T08:26:04.195Z,28.06
2023-03-30T08:27:04.237Z,28.19
2023-03-30T08:28:04.114Z,28.59
2023-03-30T08:29:04.096Z,28.77
2023-03-30T08:30:04.390Z,28.68
2023-03-30T08:31:04.196Z,28.59
2023-03-30T08:32:04.094Z,28.37
2023-03-30T08:33:04.052Z,27.80
2023-03-30T08:34:03.982Z,27.23
2023-03-30T08:35:04.092Z,26.71
2023-03-30T08:36:04.111Z,26.68
2023-03-30T08:37:03.978Z,26.37
2023-03-30T08:38:03.925Z,26.46
2023-03-30T08:39:04.030Z,26.25
2023-03-30T08:40:03.945Z,26.11
2023-03-30T08:41:04.145Z,26.04
2023-03-30T08:42:03.992Z,25.74
2023-03-30T08:43:04.009Z,25.90
2023-03-30T08:44:04.154Z,24.88
2023-03-30T08:45:04.044Z,28.25
2023-03-30T08:46:04.098Z,27.44
2023-03-30T08:47:04.052Z,27.83
2023-03-30T08:48:04.039Z,28.20
2023-03-30T08:49:04.081Z,28.50
2023-03-30T08:50:04.024Z,27.22
2023-03-30T08:51:04.176Z,27.58
2023-03-30T08:52:03.978Z,27.99
2023-03-30T08:53:04.080Z,28.06
2023-03-30T08:54:03.983Z,28.36
2023-03-30T08:55:03.954Z,28.63
2023-03-30T08:56:03.955Z,28.79
2023-03-30T08:57:03.951Z,28.85
2023-03-30T08:58:03.911Z,28.86
2023-03-30T08:59:04.400Z,28.79
2023-03-30T09:00:03.893Z,28.80
2023-03-30T09:01:04.084Z,28.58
2023-03-30T09:02:03.831Z,28.47
2023-03-30T09:03:03.912Z,28.29
2023-03-30T09:04:04.414Z,28.57
2023-03-30T09:05:03.877Z,28.76
2023-03-30T09:06:03.803Z,28.84
2023-03-30T09:07:03.815Z,28.86
2023-03-30T09:08:03.836Z,28.90
2023-03-30T09:09:03.902Z,29.12
2023-03-30T09:10:03.952Z,29.07
2023-03-30T09:11:04.212Z,29.11
2023-03-30T09:12:04.044Z,29.37
2023-03-30T09:13:04.118Z,29.20
2023-03-30T09:14:04.111Z,29.10
2023-03-30T09:15:04.056Z,28.73
2023-03-30T09:16:04.083Z,28.69
2023-03-30T09:17:04.072Z,27.60
2023-03-30T09:18:04.107Z,28.14
2023-03-30T09:19:03.994Z,27.88
2023-03-30T09:20:04.906Z,27.69
2023-03-30T09:21:04.154Z,27.41
2023-03-30T09:22:03.957Z,27.15
2023-03-30T09:23:03.927Z,26.83
2023-03-30T09:24:03.930Z,27.28
2023-03-30T09:25:03.922Z,26.60
2023-03-30T09:26:03.908Z,26.53
2023-03-30T09:27:03.935Z,26.58
2023-03-30T09:28:04.068Z,26.31
2023-03-30T09:29:03.933Z,26.25
2023-03-30T09:30:03.912Z,26.06
2023-03-30T09:31:04.261Z,25.91
2023-03-30T09:32:03.887Z,25.84
2023-03-30T09:33:03.890Z,25.53
2023-03-30T09:34:05.017Z,25.55
2023-03-30T09:35:03.842Z,25.49
2023-03-30T09:36:04.081Z,25.58
2023-03-30T09:37:04.026Z,25.98
2023-03-30T09:38:04.178Z,26.65
2023-03-30T09:39:03.794Z,26.95
2023-03-30T09:40:03.864Z,26.48
2023-03-30T09:41:03.998Z,26.23
2023-03-30T09:42:03.762Z,26.28
2023-03-30T09:43:03.713Z,26.21
2023-03-30T09:44:03.723Z,26.10
2023-03-30T09:45:03.812Z,26.02
2023-03-30T09:46:03.866Z,26.06
2023-03-30T09:47:03.758Z,25.96
2023-03-30T09:48:03.669Z,25.96
2023-03-30T09:49:03.695Z,25.92
2023-03-30T09:50:03.629Z,25.79
2023-03-30T09:51:03.610Z,25.69
2023-03-30T09:52:03.648Z,25.70
2023-03-30T09:53:03.697Z,25.72
2023-03-30T09:54:03.589Z,25.69
2023-03-30T09:55:03.548Z,25.70
2023-03-30T09:56:03.782Z,25.75
2023-03-30T09:57:03.523Z,25.65
2023-03-30T09:58:03.504Z,25.69
2023-03-30T09:59:03.473Z,25.66
2023-03-30T10:00:03.480Z,25.55
2023-03-30T10:01:04.465Z,25.55
2023-03-30T10:02:03.444Z,25.55
2023-03-30T10:03:03.730Z,25.51
2023-03-30T10:04:03.855Z,25.43
2023-03-30T10:05:03.564Z,25.47
2023-03-30T10:06:03.816Z,25.40
2023-03-30T10:07:12.971Z,25.37
2023-03-30T10:08:04.346Z,25.27
2023-03-30T10:09:03.521Z,25.24
2023-03-30T10:10:03.298Z,25.26
2023-03-30T10:11:03.263Z,25.21
2023-03-30T10:12:03.265Z,25.52
2023-03-30T10:13:03.227Z,25.44
2023-03-30T10:14:03.228Z,25.34
2023-03-30T10:15:03.196Z,25.42
2023-03-30T10:16:03.614Z,25.44
2023-03-30T10:17:03.278Z,25.44
2023-03-30T10:18:03.143Z,25.40
2023-03-30T10:19:03.135Z,25.42
2023-03-30T10:20:13.316Z,25.50
2023-03-30T10:21:04.059Z,25.40
2023-03-30T10:22:03.041Z,25.40
2023-03-30T10:23:03.056Z,25.27
2023-03-30T10:24:03.009Z,25.28
2023-03-30T10:25:02.975Z,25.33
2023-03-30T10:26:03.257Z,25.26
2023-03-30T10:27:02.942Z,25.20
2023-03-30T10:28:03.001Z,25.23
2023-03-30T10:29:02.873Z,24.82
2023-03-30T10:30:02.908Z,25.19
2023-03-30T10:31:02.892Z,25.76
2023-03-30T10:32:02.913Z,26.15
2023-03-30T10:33:02.858Z,26.66
2023-03-30T10:34:02.817Z,26.00
2023-03-30T10:35:02.831Z,25.83
2023-03-30T10:36:05.631Z,25.13
2023-03-30T10:37:02.853Z,25.24
2023-03-30T10:38:02.730Z,25.82
2023-03-30T10:39:02.764Z,26.24
2023-03-30T10:40:02.769Z,26.37
2023-03-30T10:41:02.689Z,25.37
2023-03-30T10:42:02.660Z,25.36
2023-03-30T10:43:02.629Z,25.86
2023-03-30T10:44:02.636Z,26.52
2023-03-30T10:45:02.647Z,26.48
2023-03-30T10:46:16.471Z,26.82
2023-03-30T10:47:03.622Z,27.21
2023-03-30T10:48:02.600Z,26.97
2023-03-30T10:49:02.537Z,26.96
2023-03-30T10:50:02.506Z,26.71
2023-03-30T10:51:02.546Z,26.63
2023-03-30T10:52:02.488Z,26.56
2023-03-30T10:53:02.533Z,26.42
2023-03-30T10:54:02.429Z,26.34
2023-03-30T10:55:02.470Z,26.28
2023-03-30T10:56:02.468Z,26.25
2023-03-30T10:57:02.428Z,26.20
2023-03-30T10:58:02.347Z,26.16
2023-03-30T10:59:02.315Z,26.14
2023-03-30T11:00:02.286Z,26.16
2023-03-30T11:01:02.313Z,26.09
2023-03-30T11:02:02.288Z,26.05
2023-03-30T11:03:04.016Z,26.05
2023-03-30T11:04:09.409Z,26.05
2023-03-30T11:05:03.178Z,25.97
2023-03-30T11:06:02.359Z,25.98
2023-03-30T11:07:02.133Z,25.98
2023-03-30T11:08:02.085Z,25.91
2023-03-30T11:09:02.070Z,25.94
2023-03-30T11:10:02.097Z,25.91
2023-03-30T11:11:02.062Z,25.90
2023-03-30T11:12:02.028Z,25.85
2023-03-30T11:13:02.040Z,25.85
2023-03-30T11:14:02.065Z,25.83
2023-03-30T11:15:02.084Z,25.85
2023-03-30T11:16:02.348Z,25.82
2023-03-30T11:17:02.283Z,25.75
2023-03-30T11:18:02.301Z,25.78
2023-03-30T11:19:02.355Z,25.73
2023-03-30T11:20:02.330Z,25.74
2023-03-30T11:21:02.379Z,25.71
2023-03-30T11:22:02.451Z,25.74
2023-03-30T11:23:02.481Z,25.70
2023-03-30T11:24:02.524Z,25.71
2023-03-30T11:25:02.569Z,25.65
2023-03-30T11:26:02.789Z,25.68
2023-03-30T11:27:02.759Z,25.66
2023-03-30T11:28:02.759Z,25.63
2023-03-30T11:29:02.780Z,25.63
2023-03-30T11:30:02.837Z,25.65
2023-03-30T11:31:02.868Z,25.68
2023-03-30T11:32:02.992Z,25.63
2023-03-30T11:33:03.040Z,25.66
2023-03-30T11:34:03.001Z,25.61
2023-03-30T11:35:03.037Z,25.65
2023-03-30T11:36:03.459Z,25.65
2023-03-30T11:37:03.134Z,25.61
2023-03-30T11:38:03.218Z,25.59
2023-03-30T11:39:03.212Z,25.61
2023-03-30T11:40:03.268Z,25.58
2023-03-30T11:41:03.347Z,25.62
2023-03-30T11:42:03.318Z,25.60
2023-03-30T11:43:03.364Z,25.64
2023-03-30T11:44:03.435Z,25.61
2023-03-30T11:45:03.431Z,25.60
2023-03-30T11:46:04.114Z,25.57
2023-03-30T11:47:03.507Z,25.64
2023-03-30T11:48:03.583Z,25.58
2023-03-30T11:49:03.577Z,25.60
2023-03-30T11:50:03.617Z,25.59
2023-03-30T11:51:03.936Z,25.57
2023-03-30T11:52:03.684Z,25.56
2023-03-30T11:53:03.742Z,25.54
2023-03-30T11:54:03.776Z,25.54
2023-03-30T11:55:04.347Z,25.52
2023-03-30T11:56:03.899Z,25.52
2023-03-30T11:57:03.921Z,25.47
2023-03-30T11:58:06.304Z,25.52
2023-03-30T11:59:03.855Z,25.52
2023-03-30T12:00:03.826Z,25.52
2023-03-30T12:01:03.976Z,25.46
2023-03-30T12:02:03.820Z,25.47
2023-03-30T12:03:03.903Z,25.52
2023-03-30T12:04:03.881Z,25.54
2023-03-30T12:05:03.950Z,25.52
2023-03-30T12:06:03.886Z,25.50
2023-03-30T12:07:03.699Z,25.52
2023-03-30T12:08:03.678Z,25.46
2023-03-30T12:09:03.631Z,25.45
2023-03-30T12:10:05.999Z,25.49
2023-03-30T12:11:03.784Z,25.43
2023-03-30T12:12:03.584Z,25.50
2023-03-30T12:13:03.533Z,25.49
2023-03-30T12:14:03.489Z,25.46
2023-03-30T12:15:03.455Z,25.45
2023-03-30T12:16:03.613Z,25.48
2023-03-30T12:17:03.440Z,25.45
2023-03-30T12:18:03.422Z,25.45
2023-03-30T12:19:03.353Z,25.44
2023-03-30T12:20:03.333Z,25.40
2023-03-30T12:21:03.336Z,25.41
2023-03-30T12:22:03.339Z,25.40
2023-03-30T12:23:03.286Z,25.41
2023-03-30T12:24:03.249Z,25.36
2023-03-30T12:25:03.237Z,25.32
2023-03-30T12:26:03.429Z,25.33
2023-03-30T12:27:06.922Z,25.29
2023-03-30T12:28:03.319Z,25.32
2023-03-30T12:29:26.331Z,25.33
2023-03-30T12:30:04.116Z,25.33
2023-03-30T12:31:03.071Z,25.33
2023-03-30T12:32:03.307Z,25.26
2023-03-30T12:33:03.074Z,25.29
2023-03-30T12:34:03.037Z,25.25
2023-03-30T12:35:03.006Z,25.28
2023-03-30T12:36:03.318Z,25.29
2023-03-30T12:37:02.984Z,25.28
2023-03-30T12:38:02.910Z,25.29
2023-03-30T12:39:02.950Z,25.28
2023-03-30T12:40:02.913Z,25.28
2023-03-30T12:41:02.865Z,25.28
2023-03-30T12:42:02.950Z,25.29
2023-03-30T12:43:02.949Z,25.28
2023-03-30T12:44:02.971Z,25.28
2023-03-30T12:45:03.011Z,25.27
2023-03-30T12:46:03.298Z,25.27
2023-03-30T12:47:04.685Z,25.26
2023-03-30T12:48:03.120Z,25.28
2023-03-30T12:49:05.482Z,25.24
2023-03-30T12:50:02.975Z,25.24
2023-03-30T12:51:03.102Z,25.30
2023-03-30T12:52:02.919Z,25.28
2023-03-30T12:53:04.098Z,25.24